Star Mariella — V7KK3 — position and weather

sailwx.info

Track history (hours):
 
Tides and Currents Weather Stations Pressure Air Temp Water Temp Dewpoint Dewpoint Depression Visibility Wind Speed Wind Dir Waves Ship Positions

Star Mariella

Last reported at 2015-Sep-05 01:33 UTC. Time now 2015-Sep-05 14:18 UTC.
Position N 57°48' E 010°27'.

Length 229 m; draft 13.6 m.

Type: Ship. MMSI: 538002632.

Date/timePositionNaut miles runAvg speedWind from/ knotsBaromVisibWave heightAir tempDewpointWater temp
2015-Sep-05 01:33N 57°48' E 010°27'1110.9
2015-Sep-05 00:32N 57°47' E 010°47'1110.8
2015-Sep-04 23:33N 57°40' E 011°02'1212.3
2015-Sep-04 22:33N 57°31' E 011°19'1111.5
2015-Sep-04 21:33N 57°22' E 011°31'1211.8
2015-Sep-04 20:33N 57°11' E 011°37'1212.1
2015-Sep-04 19:33N 56°59' E 011°45'1211.8
2015-Sep-04 18:33N 56°48' E 011°52'1111.2
2015-Sep-04 17:34N 56°38' E 011°46'7910.7
2015-Sep-04 10:14N 55°23' E 011°02'811.6
2015-Sep-04 09:32N 55°15' E 011°05'1110.8
2015-Sep-04 08:32N 55°05' E 010°59'1110.9
2015-Sep-04 07:33N 54°55' E 010°52'1111.3
2015-Sep-04 06:33N 54°44' E 010°47'1110.9
2015-Sep-04 05:32N 54°36' E 011°01'1211.9
2015-Sep-04 04:33N 54°33' E 011°20'1212.0
2015-Sep-04 03:34N 54°28' E 011°39'1212.1
2015-Sep-04 02:33N 54°26' E 011°59'10 9.9
2015-Sep-04 01:33N 54°32' E 012°14'8 8.2
2015-Sep-04 00:33N 54°38' E 012°22'5911.7
2015-Sep-03 19:33N 55°02' E 013°55'1212.4
2015-Sep-03 18:33N 55°10' E 014°12'1312.9
2015-Sep-03 17:33N 55°20' E 014°26'1212.4
2015-Sep-03 16:33N 55°28' E 014°42'1312.5
2015-Sep-03 15:33N 55°34' E 015°01'1212.4
2015-Sep-03 14:33N 55°39' E 015°22'34911.6
2015-Sep-02 08:33N 59°37' E 023°18'1312.4
2015-Sep-02 07:33N 59°41' E 023°42'1212.5
2015-Sep-02 06:33N 59°45' E 024°05'1312.6
2015-Sep-02 05:33N 59°47' E 024°30'4412.6
2015-Sep-02 02:05N 59°56' E 025°55'1312.6
2015-Sep-02 01:04N 59°59' E 026°20'612.4
2015-Sep-02 00:33N 60°01' E 026°32'1312.4
2015-Sep-01 23:31N 59°60' E 026°58'  
Track history (hours):
 
Tides and Currents Weather Stations Pressure Air Temp Water Temp Dewpoint Dewpoint Depression Visibility Wind Speed Wind Dir Waves Ship Positions

Star Mariella

Last reported at 2015-Sep-05 01:33 UTC. Time now 2015-Sep-05 14:18 UTC.
Position N 57°48' E 010°27'.

Length 229 m; draft 13.6 m.

Type: Ship. MMSI: 538002632.

Date/timePositionNaut miles runAvg speedWind from/ knotsBaromVisibWave heightAir tempDewpointWater temp
2015-Sep-05 01:33N 57°48' E 010°27'1110.9
2015-Sep-05 00:32N 57°47' E 010°47'1110.8
2015-Sep-04 23:33N 57°40' E 011°02'1212.3
2015-Sep-04 22:33N 57°31' E 011°19'1111.5
2015-Sep-04 21:33N 57°22' E 011°31'1211.8
2015-Sep-04 20:33N 57°11' E 011°37'1212.1
2015-Sep-04 19:33N 56°59' E 011°45'1211.8
2015-Sep-04 18:33N 56°48' E 011°52'1111.2
2015-Sep-04 17:34N 56°38' E 011°46'7910.7
2015-Sep-04 10:14N 55°23' E 011°02'811.6
2015-Sep-04 09:32N 55°15' E 011°05'1110.8
2015-Sep-04 08:32N 55°05' E 010°59'1110.9
2015-Sep-04 07:33N 54°55' E 010°52'1111.3
2015-Sep-04 06:33N 54°44' E 010°47'1110.9
2015-Sep-04 05:32N 54°36' E 011°01'1211.9
2015-Sep-04 04:33N 54°33' E 011°20'1212.0
2015-Sep-04 03:34N 54°28' E 011°39'1212.1
2015-Sep-04 02:33N 54°26' E 011°59'10 9.9
2015-Sep-04 01:33N 54°32' E 012°14'8 8.2
2015-Sep-04 00:33N 54°38' E 012°22'5911.7
2015-Sep-03 19:33N 55°02' E 013°55'1212.4
2015-Sep-03 18:33N 55°10' E 014°12'1312.9
2015-Sep-03 17:33N 55°20' E 014°26'1212.4
2015-Sep-03 16:33N 55°28' E 014°42'1312.5
2015-Sep-03 15:33N 55°34' E 015°01'1212.4
2015-Sep-03 14:33N 55°39' E 015°22'34911.6
2015-Sep-02 08:33N 59°37' E 023°18'1312.4
2015-Sep-02 07:33N 59°41' E 023°42'1212.5
2015-Sep-02 06:33N 59°45' E 024°05'1312.6
2015-Sep-02 05:33N 59°47' E 024°30'4412.6
2015-Sep-02 02:05N 59°56' E 025°55'1312.6
2015-Sep-02 01:04N 59°59' E 026°20'612.4
2015-Sep-02 00:33N 60°01' E 026°32'1312.4
2015-Sep-01 23:31N 59°60' E 026°58'  

Dump ship's entire track history